createdAt,value
2022-12-09T00:01:08.095Z,62.56
2022-12-09T00:03:36.882Z,63.18
2022-12-09T00:06:09.429Z,63.13
2022-12-09T00:08:37.744Z,62.71
2022-12-09T00:11:06.684Z,62.77
2022-12-09T00:13:36.070Z,62.92
2022-12-09T00:16:07.346Z,63.14
2022-12-09T00:18:35.368Z,63.12
2022-12-09T00:21:12.884Z,62.77
2022-12-09T00:23:40.847Z,63.11
2022-12-09T00:26:08.898Z,62.90
2022-12-09T00:28:38.157Z,62.71
2022-12-09T00:31:07.025Z,62.89
2022-12-09T00:33:36.133Z,63.04
2022-12-09T00:36:08.311Z,62.79
2022-12-09T00:38:36.264Z,62.94
2022-12-09T00:41:04.472Z,63.18
2022-12-09T00:43:32.241Z,63.32
2022-12-09T00:46:02.081Z,63.05
2022-12-09T00:48:30.959Z,62.73
2022-12-09T00:50:58.898Z,63.00
2022-12-09T00:53:26.907Z,62.80
2022-12-09T00:55:54.649Z,63.15
2022-12-09T00:58:22.392Z,63.05
2022-12-09T01:00:50.913Z,62.94
2022-12-09T01:03:20.907Z,63.27
2022-12-09T01:05:49.352Z,63.41
2022-12-09T01:08:17.547Z,63.34
2022-12-09T01:10:47.053Z,63.32
2022-12-09T01:13:16.519Z,62.92
2022-12-09T01:15:44.558Z,63.09
2022-12-09T01:18:13.544Z,62.70
2022-12-09T01:20:42.811Z,63.17
2022-12-09T01:23:10.534Z,63.44
2022-12-09T01:25:38.968Z,63.34
2022-12-09T01:28:06.766Z,63.09
2022-12-09T01:30:34.490Z,62.94
2022-12-09T01:33:02.228Z,63.21
2022-12-09T01:35:30.102Z,63.03
2022-12-09T01:37:59.309Z,63.47
2022-12-09T01:40:27.076Z,62.88
2022-12-09T01:42:54.831Z,63.32
2022-12-09T01:45:44.173Z,63.11
2022-12-09T01:48:14.685Z,63.20
2022-12-09T01:50:47.439Z,63.28
2022-12-09T01:53:19.599Z,62.97
2022-12-09T01:55:47.458Z,63.03
2022-12-09T01:58:16.667Z,63.16
2022-12-09T02:00:45.738Z,63.39
2022-12-09T02:03:13.849Z,63.43
2022-12-09T02:05:41.805Z,63.30
2022-12-09T02:08:13.121Z,63.49
2022-12-09T02:10:53.007Z,63.28
2022-12-09T02:13:26.873Z,63.46
2022-12-09T02:15:56.124Z,63.18
2022-12-09T02:18:30.869Z,63.29
2022-12-09T02:21:02.864Z,63.23
2022-12-09T02:23:38.741Z,63.35
2022-12-09T02:26:17.574Z,63.36
2022-12-09T02:29:05.039Z,63.42
2022-12-09T02:31:43.687Z,63.32
2022-12-09T02:34:15.994Z,63.29
2022-12-09T02:36:53.332Z,63.48
2022-12-09T02:39:25.019Z,63.56
2022-12-09T02:41:54.878Z,63.38
2022-12-09T02:44:25.235Z,63.56
2022-12-09T02:46:54.574Z,63.67
2022-12-09T02:49:26.208Z,63.76
2022-12-09T02:51:55.391Z,63.43
2022-12-09T02:54:24.718Z,63.41
2022-12-09T02:56:57.071Z,63.64
2022-12-09T02:59:25.123Z,63.94
2022-12-09T03:02:01.894Z,63.87
2022-12-09T03:04:33.024Z,63.34
2022-12-09T03:07:13.206Z,63.51
2022-12-09T03:09:46.456Z,63.44
2022-12-09T03:12:18.832Z,63.53
2022-12-09T03:14:50.785Z,63.49
2022-12-09T03:17:22.908Z,63.54
2022-12-09T03:19:56.155Z,63.53
2022-12-09T03:22:28.771Z,63.90
2022-12-09T03:25:00.725Z,63.28
2022-12-09T03:27:35.473Z,63.74
2022-12-09T03:30:07.556Z,63.83
2022-12-09T03:32:38.698Z,63.66
2022-12-09T03:35:14.465Z,63.93
2022-12-09T03:37:45.199Z,63.70
2022-12-09T03:40:17.979Z,63.91
2022-12-09T03:42:52.022Z,63.73
2022-12-09T03:45:23.630Z,63.85
2022-12-09T03:47:52.260Z,63.69
2022-12-09T03:50:23.363Z,63.48
2022-12-09T03:52:54.769Z,63.63
2022-12-09T03:55:34.935Z,63.87
2022-12-09T03:58:07.175Z,63.91
2022-12-09T04:00:37.605Z,64.23
2022-12-09T04:03:05.773Z,63.98
2022-12-09T04:05:35.927Z,63.81
2022-12-09T04:08:03.705Z,63.70
2022-12-09T04:10:31.397Z,64.15
2022-12-09T04:12:59.088Z,63.88
2022-12-09T04:15:26.925Z,63.79
2022-12-09T04:17:54.886Z,63.85
2022-12-09T04:20:22.719Z,63.97
2022-12-09T04:22:52.254Z,63.83
2022-12-09T04:25:19.929Z,63.75
2022-12-09T04:27:47.964Z,63.73
2022-12-09T04:30:15.950Z,63.95
2022-12-09T04:32:44.120Z,63.97
2022-12-09T04:35:12.028Z,63.75
2022-12-09T04:37:39.681Z,63.92
2022-12-09T04:40:10.284Z,63.79
2022-12-09T04:42:38.451Z,64.11
2022-12-09T04:45:07.724Z,64.03
2022-12-09T04:47:35.591Z,64.00
2022-12-09T04:50:05.079Z,63.86
2022-12-09T04:52:33.778Z,64.14
2022-12-09T04:55:01.460Z,64.22
2022-12-09T04:57:30.872Z,64.07
2022-12-09T04:59:58.628Z,63.90
2022-12-09T05:02:26.796Z,64.14
2022-12-09T05:04:54.935Z,63.54
2022-12-09T05:07:23.420Z,63.61
2022-12-09T05:09:51.731Z,64.18
2022-12-09T05:12:19.464Z,64.00
2022-12-09T05:14:48.507Z,63.60
2022-12-09T05:17:16.586Z,63.88
2022-12-09T05:19:44.814Z,63.99
2022-12-09T05:22:12.871Z,63.90
2022-12-09T05:24:41.144Z,64.08
2022-12-09T05:27:09.275Z,63.88
2022-12-09T05:29:37.017Z,63.84
2022-12-09T05:32:06.444Z,64.25
2022-12-09T05:34:34.577Z,63.94
2022-12-09T05:37:02.418Z,64.02
2022-12-09T05:39:30.403Z,64.13
2022-12-09T05:41:58.266Z,63.95
2022-12-09T05:44:26.250Z,63.40
2022-12-09T05:46:54.249Z,63.85
2022-12-09T05:49:23.773Z,63.71
2022-12-09T05:51:52.024Z,63.61
2022-12-09T05:54:20.206Z,63.55
2022-12-09T05:56:48.950Z,63.48
2022-12-09T05:59:16.985Z,63.49
2022-12-09T06:01:45.123Z,63.50
2022-12-09T06:04:13.116Z,63.43
2022-12-09T06:06:42.612Z,63.58
2022-12-09T06:09:12.174Z,62.37
2022-12-09T06:11:41.227Z,62.26
2022-12-09T06:14:10.162Z,61.50
2022-12-09T06:16:39.099Z,60.79
2022-12-09T06:19:07.654Z,60.28
2022-12-09T06:21:35.857Z,60.18
2022-12-09T06:24:06.292Z,59.19
2022-12-09T06:26:34.416Z,59.34
2022-12-09T06:29:02.510Z,59.64
2022-12-09T06:31:31.033Z,60.38
2022-12-09T06:33:59.979Z,60.76
2022-12-09T06:36:30.305Z,61.26
2022-12-09T06:39:04.544Z,61.42
2022-12-09T06:41:37.300Z,61.60
2022-12-09T06:44:05.513Z,61.89
2022-12-09T06:46:33.777Z,62.51
2022-12-09T06:49:01.786Z,62.12
2022-12-09T06:51:30.068Z,62.33
2022-12-09T06:53:58.105Z,62.75
2022-12-09T06:56:26.236Z,62.37
2022-12-09T06:58:55.459Z,62.89
2022-12-09T07:01:25.919Z,62.88
2022-12-09T07:03:57.147Z,62.90
2022-12-09T07:06:29.804Z,63.01
2022-12-09T07:08:59.958Z,62.89
2022-12-09T07:11:28.272Z,63.07
2022-12-09T07:13:57.757Z,62.96
2022-12-09T07:16:26.671Z,63.25
2022-12-09T07:18:54.775Z,63.91
2022-12-09T07:21:24.819Z,63.61
2022-12-09T07:23:53.977Z,63.71
2022-12-09T07:26:22.832Z,63.22
2022-12-09T07:28:51.314Z,63.38
2022-12-09T07:31:22.667Z,63.87
2022-12-09T07:33:51.688Z,63.85
2022-12-09T07:36:21.527Z,64.08
2022-12-09T07:38:50.327Z,63.63
2022-12-09T07:41:19.398Z,64.03
2022-12-09T07:43:48.192Z,63.53
2022-12-09T07:46:17.590Z,64.03
2022-12-09T07:48:48.124Z,64.17
2022-12-09T07:51:17.139Z,63.63
2022-12-09T07:53:45.314Z,63.99
2022-12-09T07:56:15.706Z,64.04
2022-12-09T07:58:45.251Z,63.92
2022-12-09T08:01:15.447Z,63.62
2022-12-09T08:03:43.695Z,63.89
2022-12-09T08:06:15.118Z,63.76
2022-12-09T08:08:44.012Z,63.96
2022-12-09T08:11:14.179Z,63.65
2022-12-09T08:13:43.149Z,63.84
2022-12-09T08:16:13.585Z,64.10
2022-12-09T08:18:43.106Z,63.80
2022-12-09T08:21:14.745Z,63.57
2022-12-09T08:23:42.722Z,63.75
2022-12-09T08:26:12.038Z,63.90
2022-12-09T08:28:40.356Z,63.91
2022-12-09T08:31:10.182Z,63.61
2022-12-09T08:33:38.991Z,63.85
2022-12-09T08:36:11.646Z,63.58
2022-12-09T08:38:41.367Z,63.71
2022-12-09T08:41:11.229Z,63.49
2022-12-09T08:43:39.526Z,63.37
2022-12-09T08:46:07.980Z,63.96
2022-12-09T08:48:37.843Z,63.80
2022-12-09T08:51:06.533Z,62.59
2022-12-09T08:53:34.452Z,63.38
2022-12-09T08:56:11.749Z,62.43
2022-12-09T08:58:40.311Z,61.89
2022-12-09T09:01:08.984Z,61.22
2022-12-09T09:03:37.397Z,60.14
2022-12-09T09:06:10.737Z,59.49
2022-12-09T09:08:39.570Z,59.55
2022-12-09T09:11:11.527Z,58.53
2022-12-09T09:13:40.357Z,58.52
2022-12-09T09:16:11.220Z,57.42
2022-12-09T09:18:39.497Z,57.43
2022-12-09T09:21:08.336Z,57.39
2022-12-09T09:23:36.704Z,57.03
2022-12-09T09:26:04.908Z,57.24
2022-12-09T09:28:34.927Z,57.19
2022-12-09T09:31:05.399Z,57.38
2022-12-09T09:33:33.435Z,57.31
2022-12-09T09:36:09.675Z,57.19
2022-12-09T09:38:38.715Z,58.96
2022-12-09T09:41:16.629Z,58.91
2022-12-09T09:43:46.464Z,59.65
2022-12-09T09:46:19.895Z,59.47
2022-12-09T09:48:48.860Z,59.34
2022-12-09T09:51:19.885Z,59.54
2022-12-09T09:53:53.281Z,58.76
2022-12-09T09:56:29.279Z,58.47
2022-12-09T09:59:11.344Z,58.00
2022-12-09T10:01:39.613Z,57.65
2022-12-09T10:04:15.605Z,57.23
2022-12-09T10:06:49.899Z,57.36
2022-12-09T10:09:23.174Z,58.05
2022-12-09T10:12:02.019Z,58.75
2022-12-09T10:14:42.807Z,58.58
2022-12-09T10:17:24.132Z,59.48
2022-12-09T10:19:56.157Z,59.57
2022-12-09T10:22:28.060Z,59.81
2022-12-09T10:24:58.405Z,60.05
2022-12-09T10:27:31.520Z,60.12
2022-12-09T10:30:03.676Z,60.42
2022-12-09T10:32:33.775Z,60.70
2022-12-09T10:35:13.294Z,60.75
2022-12-09T10:37:41.625Z,61.14
2022-12-09T10:40:21.974Z,61.82
2022-12-09T10:43:09.626Z,61.28
2022-12-09T10:46:16.948Z,61.88
2022-12-09T10:48:38.670Z,61.50
2022-12-09T10:51:14.047Z,61.91
2022-12-09T10:53:48.700Z,61.90
2022-12-09T10:56:21.933Z,62.27
2022-12-09T10:58:50.195Z,61.84
2022-12-09T11:01:19.539Z,61.79
2022-12-09T11:03:53.645Z,62.04
2022-12-09T11:06:27.282Z,61.81
2022-12-09T11:08:58.225Z,62.08
2022-12-09T11:11:45.366Z,62.24
2022-12-09T11:14:23.225Z,61.38
2022-12-09T11:16:54.660Z,61.67
2022-12-09T11:19:34.177Z,62.10
2022-12-09T11:22:36.454Z,61.86
2022-12-09T11:25:20.096Z,61.59
2022-12-09T11:27:52.273Z,62.16
2022-12-09T11:30:22.631Z,61.73
2022-12-09T11:33:01.204Z,62.08
2022-12-09T11:35:37.409Z,61.77
2022-12-09T11:38:17.025Z,61.36
2022-12-09T11:40:45.369Z,61.61
2022-12-09T11:43:13.310Z,60.60
2022-12-09T11:45:41.605Z,59.86
2022-12-09T11:48:35.099Z,59.16
2022-12-09T11:51:06.947Z,58.50
2022-12-09T11:53:40.694Z,58.89
2022-12-09T11:56:17.039Z,58.12
2022-12-09T11:58:51.227Z,56.96
2022-12-09T12:01:24.585Z,56.89
2022-12-09T12:03:56.787Z,55.73
2022-12-09T12:06:26.838Z,56.16
2022-12-09T12:08:59.018Z,56.22
2022-12-09T12:11:35.602Z,55.59
2022-12-09T12:14:11.519Z,55.62
2022-12-09T12:16:48.973Z,55.22
2022-12-09T12:19:23.323Z,55.20
2022-12-09T12:22:09.485Z,55.04
2022-12-09T12:24:55.676Z,54.59
2022-12-09T12:27:39.038Z,54.92
2022-12-09T12:30:11.041Z,54.85
2022-12-09T12:33:11.874Z,55.45
2022-12-09T12:35:56.832Z,55.56
2022-12-09T12:38:40.819Z,56.09
2022-12-09T12:41:15.018Z,56.60
2022-12-09T12:44:26.952Z,57.52
2022-12-09T12:47:03.198Z,58.44
2022-12-09T12:49:43.729Z,58.17
2022-12-09T12:55:27.162Z,57.96
2022-12-09T12:58:06.041Z,57.77
2022-12-09T13:00:43.188Z,58.32
2022-12-09T13:03:22.958Z,58.51
2022-12-09T13:05:53.562Z,57.85
2022-12-09T13:08:27.319Z,57.75
2022-12-09T13:10:58.159Z,56.50
2022-12-09T13:13:30.320Z,55.92
2022-12-09T13:16:03.674Z,55.36
2022-12-09T13:18:35.932Z,54.60
2022-12-09T13:21:05.848Z,54.07
2022-12-09T13:23:50.532Z,53.21
2022-12-09T13:26:27.978Z,53.92
2022-12-09T13:29:02.687Z,53.84
2022-12-09T13:31:32.944Z,53.02
2022-12-09T13:34:16.566Z,54.38
2022-12-09T13:36:46.578Z,53.82
2022-12-09T13:39:53.914Z,54.77
2022-12-09T13:42:54.186Z,55.64
2022-12-09T13:45:27.869Z,55.69
2022-12-09T13:47:56.454Z,56.38
2022-12-09T13:50:27.328Z,56.92
2022-12-09T13:52:57.787Z,56.34
2022-12-09T13:55:38.176Z,56.30
2022-12-09T13:58:55.098Z,56.41
2022-12-09T14:01:27.465Z,56.67
2022-12-09T14:04:08.092Z,55.86
2022-12-09T14:06:41.475Z,55.46
2022-12-09T14:09:24.936Z,56.83
2022-12-09T14:11:54.899Z,56.01
2022-12-09T14:14:48.773Z,55.87
2022-12-09T14:17:34.181Z,56.16
2022-12-09T14:20:05.542Z,57.15
2022-12-09T14:22:35.053Z,57.20
2022-12-09T14:25:36.127Z,57.16
2022-12-09T14:28:37.679Z,56.98
2022-12-09T14:31:08.942Z,56.05
2022-12-09T14:33:39.101Z,55.68
2022-12-09T14:36:21.187Z,55.91
2022-12-09T14:39:25.368Z,55.51
2022-12-09T14:41:50.826Z,54.93
2022-12-09T14:44:30.189Z,53.66
2022-12-09T14:47:15.221Z,52.93
2022-12-09T14:49:49.222Z,52.81
2022-12-09T14:52:23.955Z,53.01
2022-12-09T14:54:54.827Z,53.16
2022-12-09T14:57:25.743Z,53.52
2022-12-09T14:59:56.801Z,54.47
2022-12-09T15:02:26.725Z,55.08
2022-12-09T15:04:57.081Z,54.95
2022-12-09T15:07:26.715Z,55.20
2022-12-09T15:09:57.395Z,55.12
2022-12-09T15:12:30.439Z,55.17
2022-12-09T15:15:04.536Z,56.14
2022-12-09T15:17:37.716Z,55.80
2022-12-09T15:20:06.783Z,55.04
2022-12-09T15:22:35.703Z,55.44
2022-12-09T15:25:04.464Z,55.74
2022-12-09T15:27:32.479Z,55.85
2022-12-09T15:30:01.696Z,56.31
2022-12-09T15:32:31.590Z,55.78
2022-12-09T15:35:16.443Z,55.71
2022-12-09T15:37:45.060Z,56.00
2022-12-09T15:40:16.928Z,54.75
2022-12-09T15:42:47.647Z,54.97
2022-12-09T15:45:19.867Z,54.70
2022-12-09T15:47:53.277Z,54.33
2022-12-09T15:50:24.257Z,53.60
2022-12-09T15:52:54.188Z,53.84
2022-12-09T15:55:26.714Z,53.09
2022-12-09T15:57:57.137Z,53.08
2022-12-09T16:00:26.413Z,53.15
2022-12-09T16:02:54.688Z,53.08
2022-12-09T16:05:25.300Z,53.05
2022-12-09T16:07:55.598Z,53.31
2022-12-09T16:10:26.733Z,53.91
2022-12-09T16:13:09.774Z,54.62
2022-12-09T16:15:45.001Z,54.70
2022-12-09T16:18:18.397Z,55.51
2022-12-09T16:20:58.980Z,55.23
2022-12-09T16:23:27.977Z,55.08
2022-12-09T16:26:06.411Z,55.01
2022-12-09T16:28:35.273Z,55.20
2022-12-09T16:31:18.262Z,55.49
2022-12-09T16:33:49.580Z,54.95
2022-12-09T16:36:20.243Z,55.17
2022-12-09T16:39:13.769Z,55.54
2022-12-09T16:41:58.598Z,55.68
2022-12-09T16:44:30.797Z,55.62
2022-12-09T16:47:12.565Z,55.49
2022-12-09T16:49:42.494Z,55.83
2022-12-09T16:52:13.743Z,56.37
2022-12-09T16:54:41.989Z,56.29
2022-12-09T16:57:13.275Z,56.58
2022-12-09T16:59:41.351Z,56.62
2022-12-09T17:02:16.755Z,56.20
2022-12-09T17:04:44.578Z,56.12
2022-12-09T17:07:12.335Z,56.02
2022-12-09T17:09:40.061Z,55.46
2022-12-09T17:12:08.234Z,54.38
2022-12-09T17:14:36.004Z,54.65
2022-12-09T17:17:03.854Z,54.40
2022-12-09T17:19:33.127Z,54.82
2022-12-09T17:22:00.887Z,54.90
2022-12-09T17:24:28.580Z,55.09
2022-12-09T17:26:56.242Z,54.44
2022-12-09T17:29:23.949Z,55.29
2022-12-09T17:31:52.303Z,54.68
2022-12-09T17:34:20.774Z,55.05
2022-12-09T17:36:49.870Z,55.26
2022-12-09T17:39:17.844Z,55.29
2022-12-09T17:41:45.514Z,55.05
2022-12-09T17:44:13.201Z,55.20
2022-12-09T17:46:40.873Z,55.36
2022-12-09T17:49:08.592Z,55.73
2022-12-09T17:51:36.740Z,55.59
2022-12-09T17:54:06.575Z,55.24
2022-12-09T17:56:34.840Z,55.90
2022-12-09T17:59:04.469Z,55.41
2022-12-09T18:01:34.064Z,55.20
2022-12-09T18:04:07.912Z,54.53
2022-12-09T18:06:37.666Z,54.03
2022-12-09T18:09:10.825Z,53.51
2022-12-09T18:11:38.832Z,53.29
2022-12-09T18:14:07.260Z,53.43
2022-12-09T18:16:34.996Z,52.12
2022-12-09T18:19:04.332Z,52.68
2022-12-09T18:21:32.325Z,51.78
2022-12-09T18:24:00.196Z,51.57
2022-12-09T18:26:32.943Z,52.25
2022-12-09T18:29:01.782Z,52.42
2022-12-09T18:31:29.713Z,52.12
2022-12-09T18:33:57.650Z,53.07
2022-12-09T18:36:27.571Z,53.13
2022-12-09T18:38:55.259Z,53.25
2022-12-09T18:41:25.121Z,54.15
2022-12-09T18:43:55.654Z,53.80
2022-12-09T18:46:26.917Z,53.46
2022-12-09T18:48:58.794Z,54.00
2022-12-09T18:51:27.452Z,54.74
2022-12-09T18:53:55.524Z,55.07
2022-12-09T18:56:23.227Z,54.69
2022-12-09T18:59:05.830Z,54.88
2022-12-09T19:01:39.229Z,55.50
2022-12-09T19:04:08.707Z,54.90
2022-12-09T19:06:38.303Z,55.01
2022-12-09T19:09:07.674Z,55.52
2022-12-09T19:11:37.501Z,55.19
2022-12-09T19:14:06.049Z,54.87
2022-12-09T19:16:35.954Z,55.10
2022-12-09T19:19:09.461Z,55.75
2022-12-09T19:21:38.136Z,55.06
2022-12-09T19:24:06.811Z,54.94
2022-12-09T19:26:36.357Z,55.21
2022-12-09T19:29:10.536Z,55.44
2022-12-09T19:31:41.932Z,55.42
2022-12-09T19:34:13.148Z,55.74
2022-12-09T19:36:41.181Z,56.02
2022-12-09T19:39:10.404Z,55.61
2022-12-09T19:41:40.372Z,55.39
2022-12-09T19:44:08.700Z,55.39
2022-12-09T19:46:38.336Z,55.84
2022-12-09T19:49:07.946Z,55.38
2022-12-09T19:51:35.658Z,55.56
2022-12-09T19:54:03.426Z,55.10
2022-12-09T19:56:31.443Z,55.47
2022-12-09T19:59:00.604Z,55.18
2022-12-09T20:01:30.321Z,56.00
2022-12-09T20:04:08.874Z,55.61
2022-12-09T20:06:43.837Z,55.75
2022-12-09T20:09:13.881Z,55.14
2022-12-09T20:11:42.738Z,55.62
2022-12-09T20:14:13.146Z,55.50
2022-12-09T20:16:41.273Z,55.67
2022-12-09T20:19:09.500Z,55.71
2022-12-09T20:21:37.686Z,56.11
2022-12-09T20:24:07.813Z,55.81
2022-12-09T20:26:38.060Z,55.78
2022-12-09T20:29:08.408Z,55.77
2022-12-09T20:31:37.585Z,55.85
2022-12-09T20:34:07.910Z,55.63
2022-12-09T20:36:37.875Z,55.73
2022-12-09T20:39:11.242Z,55.81
2022-12-09T20:41:39.232Z,55.67
2022-12-09T20:44:07.054Z,55.91
2022-12-09T20:46:35.560Z,55.63
2022-12-09T20:49:03.538Z,55.28
2022-12-09T20:51:33.866Z,55.95
2022-12-09T20:54:02.169Z,56.18
2022-12-09T20:56:31.314Z,55.45
2022-12-09T20:58:59.356Z,55.38
2022-12-09T21:01:28.987Z,55.78
2022-12-09T21:03:58.296Z,55.86
2022-12-09T21:06:29.368Z,55.04
2022-12-09T21:08:57.472Z,55.86
2022-12-09T21:11:26.434Z,55.61
2022-12-09T21:13:58.670Z,55.12
2022-12-09T21:16:28.909Z,55.56
2022-12-09T21:18:58.148Z,55.57
2022-12-09T21:21:27.556Z,55.56
2022-12-09T21:23:55.309Z,55.19
2022-12-09T21:26:24.630Z,54.92
2022-12-09T21:28:53.074Z,54.86
2022-12-09T21:31:24.583Z,55.18
2022-12-09T21:33:54.330Z,55.18
2022-12-09T21:36:24.854Z,54.91
2022-12-09T21:38:53.624Z,54.96
2022-12-09T21:41:23.530Z,55.03
2022-12-09T21:43:52.213Z,55.39
2022-12-09T21:46:23.353Z,54.88
2022-12-09T21:48:54.242Z,55.12
2022-12-09T21:51:24.373Z,55.41
2022-12-09T21:53:52.163Z,55.02
2022-12-09T21:56:22.612Z,54.90
2022-12-09T21:58:52.550Z,55.17
2022-12-09T22:01:23.890Z,55.19
2022-12-09T22:03:51.586Z,54.71
2022-12-09T22:06:19.400Z,55.21
2022-12-09T22:08:47.265Z,55.24
2022-12-09T22:11:17.669Z,55.06
2022-12-09T22:13:45.890Z,55.07
2022-12-09T22:16:16.325Z,54.97
2022-12-09T22:18:45.560Z,55.14
2022-12-09T22:21:24.646Z,55.26
2022-12-09T22:23:54.248Z,55.47
2022-12-09T22:26:22.725Z,55.12
2022-12-09T22:28:50.784Z,55.17
2022-12-09T22:31:21.341Z,54.80
2022-12-09T22:33:51.659Z,55.06
2022-12-09T22:36:20.294Z,55.03
2022-12-09T22:38:48.775Z,55.01
2022-12-09T22:41:18.815Z,54.86
2022-12-09T22:43:48.132Z,54.63
2022-12-09T22:46:17.529Z,54.77
2022-12-09T22:48:45.611Z,54.75
2022-12-09T22:51:16.305Z,54.88
2022-12-09T22:53:44.972Z,54.70
2022-12-09T22:56:13.526Z,54.72
2022-12-09T22:58:41.533Z,55.06
2022-12-09T23:01:14.245Z,55.32
2022-12-09T23:03:42.429Z,55.05
2022-12-09T23:06:10.561Z,55.06
2022-12-09T23:08:41.845Z,54.84
2022-12-09T23:11:16.403Z,54.81
2022-12-09T23:13:44.517Z,55.06
2022-12-09T23:16:15.369Z,54.79
2022-12-09T23:18:43.634Z,55.02
2022-12-09T23:21:16.431Z,55.16
2022-12-09T23:23:45.594Z,54.94
2022-12-09T23:26:16.500Z,55.08
2022-12-09T23:28:45.929Z,55.08
2022-12-09T23:31:15.702Z,55.09
2022-12-09T23:33:45.400Z,55.23
2022-12-09T23:36:14.815Z,55.07
2022-12-09T23:38:43.316Z,55.16
2022-12-09T23:41:13.603Z,55.65
2022-12-09T23:43:42.003Z,55.63
2022-12-09T23:46:15.748Z,55.59
2022-12-09T23:48:44.135Z,55.61
2022-12-09T23:51:13.112Z,55.71
2022-12-09T23:53:41.625Z,55.73
2022-12-09T23:56:13.483Z,55.83
2022-12-09T23:58:42.068Z,55.65
